Time;durP1;ratioP1;P1;durP2;ratioP2;P2;SDS_P1;SDS_P2;PMS_P1;PMS_P2;Temp;Humidity;BMP_temperature;BMP_pressure;BME280_temperature;BME280_humidity;BME280_pressure;Samples;Min_cycle;Max_cycle;Signal;HPM_P1;HPM_P2
2023/03/31 00:01:33;;;;;;;;;;;;;;;10.13;100.00;100303.88;10340767;28;19932;-71
2023/03/31 00:06:40;;;;;;;;;;;;;;;10.25;100.00;100296.19;10322894;28;19980;-71
2023/03/31 00:11:43;;;;;;;;;;;;;;;10.27;100.00;100292.56;10339302;28;19932;-71
2023/03/31 00:16:45;;;;;;;;;;;;;;;10.37;100.00;100284.97;10340227;28;19933;-71
2023/03/31 00:21:47;;;;;;;;;;;;;;;10.28;100.00;100265.44;10338359;28;19972;-70
2023/03/31 00:26:50;;;;;;;;;;;;;;;10.17;100.00;100271.38;10339442;28;19926;-70
2023/03/31 00:31:52;;;;;;;;;;;;;;;10.29;100.00;100258.41;10339660;28;19930;-70
2023/03/31 00:36:57;;;;;;;;;;;;;;;10.35;100.00;100255.44;10338552;28;19926;-71
2023/03/31 00:42:03;;;;;;;;;;;;;;;10.38;100.00;100250.03;10337850;28;19926;-71
2023/03/31 00:47:15;;;;;;;;;;;;;;;10.39;100.00;100241.25;10337914;28;20340;-71
2023/03/31 00:52:18;;;;;;;;;;;;;;;10.38;100.00;100243.00;10337661;28;19925;-70
2023/03/31 00:57:20;;;;;;;;;;;;;;;10.46;100.00;100247.75;10338677;28;20016;-70
2023/03/31 01:02:51;;;;;;;;;;;;;;;10.41;100.00;100239.34;10367059;23;19929;-67
2023/03/31 01:07:54;;;;;;;;;;;;;;;10.30;100.00;100232.16;10377655;28;20296;-67
2023/03/31 01:12:56;;;;;;;;;;;;;;;10.14;100.00;100215.81;10377913;28;19925;-67
2023/03/31 01:17:59;;;;;;;;;;;;;;;10.62;100.00;100205.66;10361070;28;19941;-67
2023/03/31 01:23:08;;;;;;;;;;;;;;;10.56;100.00;100190.41;10377031;28;19929;-67
2023/03/31 01:28:13;;;;;;;;;;;;;;;10.39;100.00;100171.41;10377445;28;19932;-67
2023/03/31 01:33:20;;;;;;;;;;;;;;;10.39;100.00;100158.34;10377915;28;19932;-68
2023/03/31 01:38:31;;;;;;;;;;;;;;;10.37;100.00;100148.91;10377692;28;19929;-68
2023/03/31 01:43:34;;;;;;;;;;;;;;;10.37;100.00;100143.66;10376890;28;19926;-68
2023/03/31 01:48:45;;;;;;;;;;;;;;;10.23;100.00;100134.91;10376150;28;19932;-67
2023/03/31 01:53:54;;;;;;;;;;;;;;;10.41;100.00;100122.41;10358567;28;19926;-67
2023/03/31 01:59:00;;;;;;;;;;;;;;;10.26;100.00;100110.34;10358581;28;19929;-67
2023/03/31 02:04:12;;;;;;;;;;;;;;;10.28;100.00;100108.47;10358854;28;20288;-67
2023/03/31 02:09:16;;;;;;;;;;;;;;;10.08;100.00;100101.09;10359206;28;19926;-67
2023/03/31 02:14:20;;;;;;;;;;;;;;;10.11;100.00;100080.81;10359048;28;19980;-67
2023/03/31 02:19:24;;;;;;;;;;;;;;;10.11;100.00;100067.72;10357772;28;20392;-68
2023/03/31 02:24:26;;;;;;;;;;;;;;;10.32;100.00;100051.56;10375866;28;19925;-68
2023/03/31 02:29:29;;;;;;;;;;;;;;;10.20;100.00;100034.88;10358006;28;19926;-67
2023/03/31 02:34:31;;;;;;;;;;;;;;;10.20;100.00;100008.72;10357233;28;19952;-67
2023/03/31 02:39:34;;;;;;;;;;;;;;;10.23;100.00;99998.88;10357611;28;19926;-67
2023/03/31 02:44:36;;;;;;;;;;;;;;;10.33;100.00;99983.41;10357608;28;20403;-67
2023/03/31 02:49:40;;;;;;;;;;;;;;;10.38;100.00;99959.56;10374418;28;19929;-67
2023/03/31 02:54:47;;;;;;;;;;;;;;;10.48;100.00;99938.81;10375436;28;19972;-67
2023/03/31 03:00:08;;;;;;;;;;;;;;;10.41;100.00;99934.00;10356469;28;19925;-67
2023/03/31 03:05:21;;;;;;;;;;;;;;;10.50;100.00;99923.84;10380784;28;19925;-67
2023/03/31 03:10:29;;;;;;;;;;;;;;;10.31;100.00;99919.88;10365572;28;19927;-67
2023/03/31 03:15:32;;;;;;;;;;;;;;;10.40;100.00;99902.72;10365267;28;20380;-67
2023/03/31 03:20:34;;;;;;;;;;;;;;;10.27;100.00;99894.88;10364957;28;19980;-68
2023/03/31 03:25:37;;;;;;;;;;;;;;;10.40;100.00;99871.31;10365439;28;19972;-68
2023/03/31 03:30:39;;;;;;;;;;;;;;;10.46;100.00;99860.41;10382864;28;19925;-68
2023/03/31 03:35:42;;;;;;;;;;;;;;;10.27;100.00;99854.78;10381896;28;19979;-67
2023/03/31 03:40:45;;;;;;;;;;;;;;;10.24;100.00;99842.78;10382237;28;19925;-68
2023/03/31 03:45:50;;;;;;;;;;;;;;;10.34;100.00;99833.34;10382085;28;19932;-68
2023/03/31 03:50:53;;;;;;;;;;;;;;;10.39;100.00;99841.69;10379624;28;20032;-68
2023/03/31 03:55:55;;;;;;;;;;;;;;;10.33;100.00;99823.81;10363103;28;19952;-68
2023/03/31 04:00:57;;;;;;;;;;;;;;;10.24;100.00;99821.84;10380855;28;19933;-67
2023/03/31 04:05:59;;;;;;;;;;;;;;;10.21;100.00;99815.03;10381342;28;19925;-67
2023/03/31 04:11:02;;;;;;;;;;;;;;;10.23;100.00;99804.47;10359988;28;19936;-67
2023/03/31 04:16:04;;;;;;;;;;;;;;;10.20;100.00;99797.69;10359859;28;19972;-67
2023/03/31 04:21:11;;;;;;;;;;;;;;;10.20;100.00;99774.16;10362785;28;20451;-67
2023/03/31 04:26:13;;;;;;;;;;;;;;;10.03;100.00;99761.44;10380658;28;19933;-67
2023/03/31 04:31:23;;;;;;;;;;;;;;;10.36;100.00;99750.34;10378707;28;19932;-67
2023/03/31 04:36:27;;;;;;;;;;;;;;;10.11;100.00;99730.34;10380134;28;19976;-68
2023/03/31 04:41:30;;;;;;;;;;;;;;;10.01;100.00;99716.25;10361299;28;20396;-67
2023/03/31 04:46:32;;;;;;;;;;;;;;;10.08;100.00;99706.19;10379218;28;19933;-67
2023/03/31 04:51:34;;;;;;;;;;;;;;;9.89;100.00;99689.22;10378957;28;20391;-67
2023/03/31 04:56:37;;;;;;;;;;;;;;;9.93;100.00;99677.56;10378781;28;19948;-67
2023/03/31 05:01:43;;;;;;;;;;;;;;;9.94;100.00;99676.66;10378278;28;20332;-67
2023/03/31 05:06:46;;;;;;;;;;;;;;;9.90;100.00;99663.91;10378581;28;19926;-67
2023/03/31 05:11:48;;;;;;;;;;;;;;;10.11;100.00;99654.50;10378764;28;19933;-67
2023/03/31 05:16:51;;;;;;;;;;;;;;;10.13;100.00;99641.31;10377417;28;19925;-67
2023/03/31 05:21:53;;;;;;;;;;;;;;;10.22;100.00;99627.53;10377880;28;19980;-68
2023/03/31 05:26:56;;;;;;;;;;;;;;;10.05;100.00;99626.16;10377822;28;19925;-67
2023/03/31 05:31:58;;;;;;;;;;;;;;;10.21;100.00;99618.03;10378347;28;19925;-67
2023/03/31 05:37:00;;;;;;;;;;;;;;;10.28;100.00;99602.72;10377866;28;19925;-67
2023/03/31 05:42:04;;;;;;;;;;;;;;;10.28;100.00;99600.09;10359702;28;20265;-67
2023/03/31 05:47:06;;;;;;;;;;;;;;;10.21;100.00;99586.63;10376295;28;19976;-67
2023/03/31 05:52:09;;;;;;;;;;;;;;;10.04;100.00;99564.38;10377434;28;19932;-67
2023/03/31 05:57:11;;;;;;;;;;;;;;;9.96;100.00;99556.25;10359844;28;19977;-67
2023/03/31 06:02:14;;;;;;;;;;;;;;;10.14;100.00;99554.06;10376257;28;19925;-67
2023/03/31 06:07:16;;;;;;;;;;;;;;;10.34;100.00;99553.41;10376138;28;20373;-68
2023/03/31 06:12:19;;;;;;;;;;;;;;;10.02;100.00;99547.97;10376906;28;19925;-68
2023/03/31 06:17:21;;;;;;;;;;;;;;;10.11;100.00;99542.03;10376407;28;19925;-68
2023/03/31 06:22:23;;;;;;;;;;;;;;;10.46;100.00;99542.97;10374372;28;19988;-68
2023/03/31 06:27:26;;;;;;;;;;;;;;;10.49;100.00;99532.22;10375475;28;20403;-67
2023/03/31 06:32:28;;;;;;;;;;;;;;;10.40;100.00;99528.53;10375320;28;19925;-67
2023/03/31 06:37:30;;;;;;;;;;;;;;;10.17;100.00;99530.25;10374501;28;19926;-68
2023/03/31 06:42:33;;;;;;;;;;;;;;;10.27;100.00;99535.63;10374953;28;20373;-67
2023/03/31 06:47:40;;;;;;;;;;;;;;;10.28;100.00;99530.28;10375559;28;19926;-67
2023/03/31 06:52:42;;;;;;;;;;;;;;;10.21;100.00;99510.78;10374823;28;20488;-67
2023/03/31 06:57:45;;;;;;;;;;;;;;;10.24;100.00;99505.31;10374766;28;19930;-67
2023/03/31 07:02:47;;;;;;;;;;;;;;;10.26;100.00;99506.03;10374538;28;19925;-67
2023/03/31 07:07:49;;;;;;;;;;;;;;;10.11;100.00;99501.97;10375182;28;19979;-67
2023/03/31 07:12:52;;;;;;;;;;;;;;;10.20;100.00;99494.28;10373327;28;19926;-67
2023/03/31 07:18:01;;;;;;;;;;;;;;;10.14;100.00;99491.28;10356860;28;20361;-67
2023/03/31 07:23:04;;;;;;;;;;;;;;;10.23;100.00;99488.78;10374192;28;20396;-67
2023/03/31 07:28:06;;;;;;;;;;;;;;;10.51;100.00;99476.22;10374166;28;19949;-67
2023/03/31 07:33:08;;;;;;;;;;;;;;;10.58;100.00;99472.16;10374609;28;19926;-67
2023/03/31 07:38:11;;;;;;;;;;;;;;;10.47;100.00;99466.94;10374641;28;19975;-67
2023/03/31 07:43:13;;;;;;;;;;;;;;;10.41;100.00;99455.16;10373214;28;19979;-67
2023/03/31 07:48:15;;;;;;;;;;;;;;;10.39;100.00;99449.22;10374904;28;19925;-67
2023/03/31 07:53:17;;;;;;;;;;;;;;;10.61;100.00;99450.16;10381833;28;20013;-67
2023/03/31 07:58:19;;;;;;;;;;;;;;;10.64;100.00;99436.84;10381702;28;19925;-67
2023/03/31 08:03:22;;;;;;;;;;;;;;;10.52;100.00;99430.78;10380654;28;19999;-67
2023/03/31 08:08:24;;;;;;;;;;;;;;;10.82;100.00;99426.66;10381309;28;19980;-67
2023/03/31 08:13:26;;;;;;;;;;;;;;;11.17;100.00;99424.78;10363179;28;20393;-67
2023/03/31 08:18:29;;;;;;;;;;;;;;;10.96;100.00;99405.44;10380886;28;19925;-67
2023/03/31 08:23:31;;;;;;;;;;;;;;;10.95;100.00;99410.81;10378861;28;19995;-67
2023/03/31 08:28:33;;;;;;;;;;;;;;;11.18;100.00;99416.78;10380583;28;19929;-67
2023/03/31 08:33:36;;;;;;;;;;;;;;;11.10;100.00;99406.13;10380346;28;19979;-68
2023/03/31 08:38:44;;;;;;;;;;;;;;;11.01;100.00;99405.09;10362126;28;20328;-68
2023/03/31 08:43:46;;;;;;;;;;;;;;;11.33;100.00;99405.06;10379332;28;19975;-68
2023/03/31 08:48:53;;;;;;;;;;;;;;;11.63;100.00;99399.97;10379708;28;19972;-68
2023/03/31 08:54:01;;;;;;;;;;;;;;;11.82;100.00;99391.41;10362265;28;19925;-68
2023/03/31 08:59:04;;;;;;;;;;;;;;;12.07;100.00;99387.56;10379093;28;19929;-68
2023/03/31 09:04:19;;;;;;;;;;;;;;;12.03;100.00;99391.41;10361090;28;19926;-68
2023/03/31 09:09:28;;;;;;;;;;;;;;;12.12;100.00;99395.00;10379001;28;19931;-68
2023/03/31 09:14:31;;;;;;;;;;;;;;;12.17;100.00;99392.81;10360848;28;20369;-68
2023/03/31 09:19:44;;;;;;;;;;;;;;;11.92;100.00;99379.22;10378509;28;19929;-68
2023/03/31 09:25:10;;;;;;;;;;;;;;;11.93;100.00;99378.22;10361102;28;19930;-68
2023/03/31 09:30:15;;;;;;;;;;;;;;;11.96;100.00;99371.91;10367438;28;20427;-68
2023/03/31 09:35:20;;;;;;;;;;;;;;;12.20;100.00;99375.00;10377952;28;19947;-68
2023/03/31 09:40:24;;;;;;;;;;;;;;;12.45;100.00;99349.25;10377106;28;20391;-68
2023/03/31 09:45:26;;;;;;;;;;;;;;;12.84;100.00;99367.69;10360266;28;19925;-68
2023/03/31 09:50:29;;;;;;;;;;;;;;;12.50;100.00;99351.47;10376792;28;20435;-68
2023/03/31 09:55:34;;;;;;;;;;;;;;;13.37;100.00;99348.88;10359819;28;19925;-68
2023/03/31 10:00:41;;;;;;;;;;;;;;;13.48;100.00;99329.50;10376188;28;20269;-68
2023/03/31 10:05:48;;;;;;;;;;;;;;;13.57;100.00;99328.63;10376867;28;19929;-68
2023/03/31 10:10:54;;;;;;;;;;;;;;;13.84;100.00;99323.56;10376677;28;19925;-68
2023/03/31 10:16:08;;;;;;;;;;;;;;;13.27;100.00;99328.81;10376542;28;19952;-68
2023/03/31 10:21:21;;;;;;;;;;;;;;;12.87;100.00;99316.69;10358822;28;19929;-68
2023/03/31 10:26:26;;;;;;;;;;;;;;;12.94;100.00;99317.78;10358277;28;20300;-68
2023/03/31 10:31:35;;;;;;;;;;;;;;;12.96;100.00;99318.47;10358043;28;19925;-68
2023/03/31 10:36:38;;;;;;;;;;;;;;;12.55;100.00;99312.53;10358590;28;19964;-68
2023/03/31 10:41:40;;;;;;;;;;;;;;;12.42;100.00;99297.88;10375682;28;19925;-68
2023/03/31 10:46:50;;;;;;;;;;;;;;;12.58;100.00;99307.00;10357633;28;19925;-68
2023/03/31 10:51:52;;;;;;;;;;;;;;;13.41;100.00;99296.00;10357887;28;19925;-68
2023/03/31 10:57:00;;;;;;;;;;;;;;;13.33;99.64;99294.94;10375396;28;19925;-68
2023/03/31 11:02:12;;;;;;;;;;;;;;;13.54;98.28;99286.81;10357774;28;19929;-68
2023/03/31 11:07:19;;;;;;;;;;;;;;;13.19;96.62;99276.94;10375242;28;19960;-68
2023/03/31 11:12:37;;;;;;;;;;;;;;;13.26;97.33;99277.19;10375107;28;19929;-68
2023/03/31 11:17:57;;;;;;;;;;;;;;;13.77;94.46;99280.38;10374361;28;20361;-68
2023/03/31 11:23:15;;;;;;;;;;;;;;;13.14;92.16;99277.38;10375063;28;19929;-68
2023/03/31 11:28:19;;;;;;;;;;;;;;;13.51;90.97;99270.50;10365580;28;19925;-68
2023/03/31 11:33:40;;;;;;;;;;;;;;;13.46;89.09;99268.31;10382071;28;19925;-67
2023/03/31 11:39:02;;;;;;;;;;;;;;;13.98;86.60;99248.56;10365013;28;19925;-67
2023/03/31 11:44:05;;;;;;;;;;;;;;;13.86;86.65;99250.56;10365021;28;19976;-68
2023/03/31 11:49:14;;;;;;;;;;;;;;;14.02;88.74;99247.28;10382089;28;19926;-67
2023/03/31 11:54:18;;;;;;;;;;;;;;;13.56;91.11;99253.31;10381271;28;19925;-67
2023/03/31 11:59:20;;;;;;;;;;;;;;;13.99;90.55;99243.16;10363945;28;19926;-67
2023/03/31 12:04:38;;;;;;;;;;;;;;;14.73;84.99;99238.59;10363432;28;19980;-67
2023/03/31 12:09:44;;;;;;;;;;;;;;;15.71;82.37;99219.84;10381285;28;19925;-67
2023/03/31 12:14:50;;;;;;;;;;;;;;;15.78;80.92;99213.00;10380533;28;19925;-68
2023/03/31 12:20:00;;;;;;;;;;;;;;;15.07;80.30;99193.03;10362886;28;20274;-67
2023/03/31 12:25:04;;;;;;;;;;;;;;;14.80;83.79;99205.38;10362946;28;19948;-67
2023/03/31 12:30:14;;;;;;;;;;;;;;;14.27;87.18;99200.97;10380646;28;19929;-67
2023/03/31 12:35:19;;;;;;;;;;;;;;;14.07;88.93;99198.50;10361804;28;19926;-67
2023/03/31 12:40:21;;;;;;;;;;;;;;;14.29;91.18;99194.59;10362047;28;19926;-67
2023/03/31 12:45:25;;;;;;;;;;;;;;;14.28;88.61;99185.03;10379276;28;19933;-67
2023/03/31 12:50:46;;;;;;;;;;;;;;;14.03;95.18;99181.34;10379763;28;19983;-67
2023/03/31 12:55:50;;;;;;;;;;;;;;;13.67;89.62;99181.31;10379579;28;19925;-67
2023/03/31 13:01:16;;;;;;;;;;;;;;;13.75;88.72;99191.09;10377381;28;19929;-67
2023/03/31 13:06:25;;;;;;;;;;;;;;;13.78;87.10;99177.63;10379369;28;19929;-67
2023/03/31 13:11:33;;;;;;;;;;;;;;;14.00;82.00;99162.41;10378994;28;19933;-67
2023/03/31 13:16:36;;;;;;;;;;;;;;;14.12;81.73;99162.03;10385897;23;19933;-62
2023/03/31 13:21:56;;;;;;;;;;;;;;;13.97;79.78;99139.88;10378401;28;19926;-62
2023/03/31 13:27:17;;;;;;;;;;;;;;;13.69;82.51;99139.91;10376626;28;19948;-62
2023/03/31 13:32:22;;;;;;;;;;;;;;;13.73;82.79;99141.28;10377994;28;19929;-63
2023/03/31 13:37:43;;;;;;;;;;;;;;;13.32;81.35;99150.50;10359961;28;20381;-62
2023/03/31 13:42:52;;;;;;;;;;;;;;;13.13;85.83;99149.59;10376622;28;19940;-62
2023/03/31 13:47:57;;;;;;;;;;;;;;;12.98;93.77;99156.28;10376580;28;19930;-62
2023/03/31 13:53:17;;;;;;;;;;;;;;;12.89;100.00;99160.59;10376202;28;19961;-62
2023/03/31 13:58:46;;;;;;;;;;;;;;;12.78;100.00;99161.59;10376564;28;19948;-62
2023/03/31 14:04:06;;;;;;;;;;;;;;;13.02;100.00;99153.22;10373482;28;20277;-62
2023/03/31 14:09:19;;;;;;;;;;;;;;;12.48;100.00;99140.81;10376207;28;20439;-62
2023/03/31 14:14:23;;;;;;;;;;;;;;;12.35;100.00;99156.81;10376047;28;19979;-62
2023/03/31 14:19:26;;;;;;;;;;;;;;;12.18;100.00;99153.13;10374859;28;20384;-62
2023/03/31 14:24:44;;;;;;;;;;;;;;;12.24;99.54;99142.88;10375543;28;19988;-62
2023/03/31 14:30:11;;;;;;;;;;;;;;;12.30;100.00;99131.00;10376175;28;19925;-62
2023/03/31 14:35:25;;;;;;;;;;;;;;;12.49;98.34;99135.41;10375862;28;19930;-62
2023/03/31 14:40:27;;;;;;;;;;;;;;;12.40;100.00;99125.75;10375763;28;19926;-62
2023/03/31 14:45:30;;;;;;;;;;;;;;;11.88;100.00;99126.84;10375060;28;19925;-62
2023/03/31 14:50:33;;;;;;;;;;;;;;;12.22;100.00;99129.09;10373806;28;20467;-62
2023/03/31 14:55:36;;;;;;;;;;;;;;;11.98;100.00;99132.13;10375437;28;19934;-62
2023/03/31 15:00:55;;;;;;;;;;;;;;;11.61;100.00;99126.69;10374480;28;19930;-62
2023/03/31 15:05:58;;;;;;;;;;;;;;;11.85;100.00;99116.63;10375242;28;19926;-62
2023/03/31 15:11:01;;;;;;;;;;;;;;;12.21;100.00;99121.34;10357278;28;20288;-62
2023/03/31 15:16:33;;;;;;;;;;;;;;;12.13;100.00;99118.59;10374292;28;19992;-62
2023/03/31 15:21:36;;;;;;;;;;;;;;;11.97;100.00;99113.88;10374340;28;19929;-62
2023/03/31 15:26:44;;;;;;;;;;;;;;;12.08;100.00;99106.72;10374304;28;19949;-62
2023/03/31 15:31:47;;;;;;;;;;;;;;;11.88;100.00;99103.25;10374671;28;19926;-62
2023/03/31 15:36:49;;;;;;;;;;;;;;;11.56;100.00;99115.78;10372942;28;19926;-62
2023/03/31 15:41:51;;;;;;;;;;;;;;;11.46;100.00;99106.09;10374550;28;19925;-62
2023/03/31 15:46:58;;;;;;;;;;;;;;;11.64;100.00;99101.00;10357152;28;19929;-62
2023/03/31 15:52:02;;;;;;;;;;;;;;;12.02;100.00;99104.66;10373818;28;19926;-62
2023/03/31 15:57:04;;;;;;;;;;;;;;;11.89;100.00;99104.06;10373653;28;20426;-62
2023/03/31 16:02:07;;;;;;;;;;;;;;;11.54;100.00;99100.19;10372402;28;20292;-62
2023/03/31 16:07:14;;;;;;;;;;;;;;;11.65;100.00;99104.47;10356844;28;19929;-62
2023/03/31 16:12:24;;;;;;;;;;;;;;;11.92;100.00;99103.00;10377921;28;19925;-62
2023/03/31 16:17:32;;;;;;;;;;;;;;;11.78;100.00;99107.66;10377788;28;19925;-62
2023/03/31 16:22:40;;;;;;;;;;;;;;;11.79;100.00;99105.88;10378381;28;19937;-62
2023/03/31 16:27:43;;;;;;;;;;;;;;;11.42;100.00;99093.41;10377743;28;20376;-62
2023/03/31 16:32:58;;;;;;;;;;;;;;;11.61;100.00;99098.66;10376430;28;20447;-62
2023/03/31 16:38:05;;;;;;;;;;;;;;;11.42;100.00;99101.28;10376272;28;20200;-62
2023/03/31 16:43:09;;;;;;;;;;;;;;;11.34;100.00;99094.88;10377059;28;19926;-62
2023/03/31 16:48:11;;;;;;;;;;;;;;;11.40;100.00;99095.31;10360400;28;19929;-62
2023/03/31 16:53:18;;;;;;;;;;;;;;;11.14;100.00;99095.81;10377583;28;19926;-62
2023/03/31 16:58:22;;;;;;;;;;;;;;;11.04;100.00;99092.31;10376743;28;20438;-62
2023/03/31 17:03:25;;;;;;;;;;;;;;;10.71;100.00;99089.88;10376588;28;19948;-62
2023/03/31 17:08:27;;;;;;;;;;;;;;;10.87;100.00;99091.97;10359848;28;19925;-62
2023/03/31 17:13:31;;;;;;;;;;;;;;;10.99;100.00;99099.75;10376926;28;19988;-62
2023/03/31 17:18:33;;;;;;;;;;;;;;;10.66;100.00;99092.03;10315849;28;1779705;-62
2023/03/31 17:23:36;;;;;;;;;;;;;;;10.77;100.00;99097.19;10377186;28;20380;-62
2023/03/31 17:28:38;;;;;;;;;;;;;;;10.49;100.00;99090.00;10377727;28;20454;-62
2023/03/31 17:33:41;;;;;;;;;;;;;;;10.49;100.00;99090.00;10378182;28;19933;-62
2023/03/31 17:38:43;;;;;;;;;;;;;;;10.62;100.00;99081.97;10360010;28;19926;-62
2023/03/31 17:43:47;;;;;;;;;;;;;;;10.56;100.00;99073.66;10376597;28;20036;-62
2023/03/31 17:48:50;;;;;;;;;;;;;;;10.66;100.00;99088.56;10376017;28;19932;-62
2023/03/31 17:53:53;;;;;;;;;;;;;;;10.43;100.00;99087.94;10376501;28;19941;-65
2023/03/31 17:58:56;;;;;;;;;;;;;;;10.58;100.00;99095.31;10377534;28;19929;-65
2023/03/31 18:03:58;;;;;;;;;;;;;;;10.33;100.00;99090.47;10360524;28;19972;-65
2023/03/31 18:09:00;;;;;;;;;;;;;;;10.63;100.00;99083.63;10318987;28;19926;-65
2023/03/31 18:14:03;;;;;;;;;;;;;;;10.48;100.00;99089.19;10318899;28;19926;-65
2023/03/31 18:19:05;;;;;;;;;;;;;;;10.38;100.00;99089.13;10317808;28;19957;-65
2023/03/31 18:24:07;;;;;;;;;;;;;;;10.50;100.00;99089.88;10335010;28;19926;-65
2023/03/31 18:29:09;;;;;;;;;;;;;;;10.22;100.00;99088.72;10335609;28;19930;-65
2023/03/31 18:34:12;;;;;;;;;;;;;;;10.22;100.00;99093.94;10333953;28;20357;-65
2023/03/31 18:39:14;;;;;;;;;;;;;;;10.09;100.00;99090.72;10334715;28;19933;-65
2023/03/31 18:44:17;;;;;;;;;;;;;;;10.10;100.00;99090.56;10335099;28;19929;-65
2023/03/31 18:49:19;;;;;;;;;;;;;;;10.17;100.00;99088.25;10335083;28;19933;-65
2023/03/31 18:54:21;;;;;;;;;;;;;;;10.14;100.00;99093.78;10335023;28;19930;-65
2023/03/31 18:59:24;;;;;;;;;;;;;;;10.10;100.00;99087.13;10317741;28;19981;-65
2023/03/31 19:04:26;;;;;;;;;;;;;;;10.08;100.00;99100.31;10334095;28;19930;-66
2023/03/31 19:09:28;;;;;;;;;;;;;;;10.15;100.00;99093.63;10334688;28;19926;-66
2023/03/31 19:14:30;;;;;;;;;;;;;;;10.11;100.00;99094.03;10334408;28;19926;-66
2023/03/31 19:19:32;;;;;;;;;;;;;;;10.04;100.00;99091.91;10316621;28;19926;-65
2023/03/31 19:24:35;;;;;;;;;;;;;;;9.92;100.00;99097.28;10333776;28;20361;-66
2023/03/31 19:29:37;;;;;;;;;;;;;;;9.98;100.00;99102.03;10334327;28;19926;-65
2023/03/31 19:34:40;;;;;;;;;;;;;;;10.26;100.00;99105.00;10333600;28;20344;-65
2023/03/31 19:39:44;;;;;;;;;;;;;;;10.03;100.00;99097.25;10333707;28;20250;-66
2023/03/31 19:44:47;;;;;;;;;;;;;;;10.06;100.00;99093.56;10346515;28;19926;-65
2023/03/31 19:49:49;;;;;;;;;;;;;;;10.00;100.00;99100.13;10381643;28;19925;-65
2023/03/31 19:54:51;;;;;;;;;;;;;;;10.08;100.00;99089.03;10381408;28;19926;-65
2023/03/31 19:59:53;;;;;;;;;;;;;;;9.93;100.00;99089.31;10381059;28;20316;-65
2023/03/31 20:04:56;;;;;;;;;;;;;;;10.31;100.00;99090.56;10381458;28;19930;-65
2023/03/31 20:09:58;;;;;;;;;;;;;;;10.10;100.00;99084.50;10381434;28;19926;-66
2023/03/31 20:15:00;;;;;;;;;;;;;;;10.08;100.00;99092.47;10380414;28;19929;-66
2023/03/31 20:20:03;;;;;;;;;;;;;;;10.00;100.00;99095.72;10379447;28;19948;-66
2023/03/31 20:25:05;;;;;;;;;;;;;;;10.02;100.00;99087.78;10362704;28;19925;-65
2023/03/31 20:30:08;;;;;;;;;;;;;;;9.92;100.00;99077.22;10380644;28;19925;-65
2023/03/31 20:35:10;;;;;;;;;;;;;;;10.18;100.00;99085.53;10346323;28;20380;-65
2023/03/31 20:40:13;;;;;;;;;;;;;;;9.86;100.00;99078.53;10379475;28;19933;-65
2023/03/31 20:45:15;;;;;;;;;;;;;;;9.99;100.00;99074.94;10379461;28;20368;-65
2023/03/31 20:50:21;;;;;;;;;;;;;;;9.97;100.00;99074.22;10378095;28;19925;-65
2023/03/31 20:55:23;;;;;;;;;;;;;;;9.91;100.00;99078.19;10379283;28;19925;-65
2023/03/31 21:00:27;;;;;;;;;;;;;;;9.90;100.00;99084.38;10379004;28;19925;-65
2023/03/31 21:05:30;;;;;;;;;;;;;;;9.84;100.00;99071.81;10378550;28;19980;-65
2023/03/31 21:10:37;;;;;;;;;;;;;;;10.03;100.00;99081.56;10379095;28;19926;-65
2023/03/31 21:15:40;;;;;;;;;;;;;;;10.14;100.00;99068.44;10377269;28;19929;-65
2023/03/31 21:20:52;;;;;;;;;;;;;;;9.91;100.00;99072.13;10377969;28;19930;-65
2023/03/31 21:25:55;;;;;;;;;;;;;;;9.83;100.00;99070.97;10361417;28;19926;-65
2023/03/31 21:31:02;;;;;;;;;;;;;;;9.86;100.00;99056.81;10359702;28;20381;-65
2023/03/31 21:36:08;;;;;;;;;;;;;;;9.99;100.00;99061.88;10378040;28;19929;-65
2023/03/31 21:41:15;;;;;;;;;;;;;;;9.84;100.00;99053.50;10343227;28;19926;-65
2023/03/31 21:46:18;;;;;;;;;;;;;;;9.83;100.00;99065.75;10376834;28;19925;-65
2023/03/31 21:51:21;;;;;;;;;;;;;;;9.82;100.00;99071.09;10376801;28;19925;-65
2023/03/31 21:56:24;;;;;;;;;;;;;;;9.78;100.00;99059.22;10359966;28;19925;-65
2023/03/31 22:01:26;;;;;;;;;;;;;;;9.64;100.00;99068.19;10377134;28;19936;-65
2023/03/31 22:06:29;;;;;;;;;;;;;;;9.72;100.00;99064.97;10358189;28;19932;-65
2023/03/31 22:11:31;;;;;;;;;;;;;;;9.81;100.00;99065.03;10375960;28;19976;-65
2023/03/31 22:16:33;;;;;;;;;;;;;;;9.88;100.00;99060.13;10375758;28;20266;-65
2023/03/31 22:21:35;;;;;;;;;;;;;;;9.94;100.00;99062.25;10375027;28;20021;-65
2023/03/31 22:26:37;;;;;;;;;;;;;;;9.86;100.00;99070.69;10376346;28;19925;-65
2023/03/31 22:31:40;;;;;;;;;;;;;;;9.74;100.00;99063.88;10375570;28;19925;-65
2023/03/31 22:36:42;;;;;;;;;;;;;;;9.67;100.00;99067.94;10374681;28;20459;-65
2023/03/31 22:41:44;;;;;;;;;;;;;;;9.67;100.00;99074.00;10375910;28;19929;-65
2023/03/31 22:46:47;;;;;;;;;;;;;;;9.82;100.00;99068.50;10375288;28;19929;-65
2023/03/31 22:51:51;;;;;;;;;;;;;;;9.82;100.00;99058.03;10375019;28;19926;-66
2023/03/31 22:56:54;;;;;;;;;;;;;;;9.71;100.00;99055.47;10375663;28;19949;-66
2023/03/31 23:01:56;;;;;;;;;;;;;;;9.80;100.00;99068.59;10373167;28;19930;-65
2023/03/31 23:06:59;;;;;;;;;;;;;;;9.78;100.00;99067.88;10374661;28;19933;-65
2023/03/31 23:12:01;;;;;;;;;;;;;;;9.61;100.00;99068.44;10374514;28;20381;-65
2023/03/31 23:17:03;;;;;;;;;;;;;;;9.72;100.00;99075.44;10373882;28;19925;-65
2023/03/31 23:22:05;;;;;;;;;;;;;;;9.69;100.00;99068.66;10380346;28;19926;-65
2023/03/31 23:27:08;;;;;;;;;;;;;;;9.65;100.00;99070.69;10365740;28;19926;-65
2023/03/31 23:32:11;;;;;;;;;;;;;;;9.70;100.00;99057.25;10381602;28;20393;-65
2023/03/31 23:37:13;;;;;;;;;;;;;;;9.58;100.00;99064.31;10365385;28;19925;-65
2023/03/31 23:42:19;;;;;;;;;;;;;;;9.75;100.00;99062.94;10382475;28;19976;-65
2023/03/31 23:47:21;;;;;;;;;;;;;;;9.73;100.00;99056.97;10381208;28;19930;-65
2023/03/31 23:52:23;;;;;;;;;;;;;;;9.64;100.00;99049.91;10381688;28;19980;-65
2023/03/31 23:57:25;;;;;;;;;;;;;;;9.67;100.00;99058.31;10364559;28;19925;-65
